createdAt,value
2022-11-03T00:02:09.087Z,5.57
2022-11-03T00:04:36.624Z,6.10
2022-11-03T00:07:04.127Z,6.57
2022-11-03T00:09:32.629Z,5.33
2022-11-03T00:12:00.942Z,5.53
2022-11-03T00:14:29.257Z,5.13
2022-11-03T00:16:56.726Z,5.53
2022-11-03T00:19:24.284Z,5.67
2022-11-03T00:21:52.732Z,5.20
2022-11-03T00:24:20.307Z,4.90
2022-11-03T00:26:47.734Z,5.30
2022-11-03T00:29:16.203Z,4.73
2022-11-03T00:31:45.569Z,4.80
2022-11-03T00:34:13.444Z,5.10
2022-11-03T00:36:45.537Z,4.87
2022-11-03T00:39:13.435Z,5.30
2022-11-03T00:41:41.312Z,5.60
2022-11-03T00:44:10.689Z,5.13
2022-11-03T00:46:38.801Z,4.50
2022-11-03T00:49:07.008Z,4.90
2022-11-03T00:51:39.910Z,5.17
2022-11-03T00:54:07.689Z,4.87
2022-11-03T00:56:41.281Z,4.93
2022-11-03T00:59:10.593Z,5.03
2022-11-03T01:01:47.012Z,5.40
2022-11-03T01:04:35.210Z,4.87
2022-11-03T01:07:04.890Z,4.97
2022-11-03T01:09:41.408Z,4.80
2022-11-03T01:12:14.923Z,5.43
2022-11-03T01:14:49.089Z,5.40
2022-11-03T01:17:22.334Z,5.57
2022-11-03T01:19:50.209Z,5.20
2022-11-03T01:22:19.089Z,4.37
2022-11-03T01:24:47.094Z,5.13
2022-11-03T01:27:20.432Z,4.80
2022-11-03T01:29:48.014Z,5.50
2022-11-03T01:32:15.913Z,5.10
2022-11-03T01:34:43.404Z,5.63
2022-11-03T01:37:11.047Z,5.30
2022-11-03T01:39:38.587Z,5.27
2022-11-03T01:42:06.425Z,5.07
2022-11-03T01:44:37.794Z,4.53
2022-11-03T01:47:33.493Z,4.93
2022-11-03T01:50:08.221Z,4.90
2022-11-03T01:52:45.272Z,4.77
2022-11-03T01:55:22.166Z,4.63
2022-11-03T01:58:01.337Z,4.20
2022-11-03T02:00:28.928Z,4.17
2022-11-03T02:02:56.507Z,4.73
2022-11-03T02:05:26.817Z,4.57
2022-11-03T02:08:14.311Z,4.47
2022-11-03T02:10:42.440Z,4.27
2022-11-03T02:13:22.691Z,4.90
2022-11-03T02:15:56.828Z,4.37
2022-11-03T02:18:33.168Z,4.40
2022-11-03T02:21:27.814Z,4.30
2022-11-03T02:24:03.865Z,3.80
2022-11-03T02:26:31.768Z,4.07
2022-11-03T02:28:59.392Z,4.23
2022-11-03T02:31:34.530Z,3.90
2022-11-03T02:34:32.701Z,3.70
2022-11-03T02:37:21.215Z,3.47
2022-11-03T02:39:59.361Z,3.73
2022-11-03T02:42:27.619Z,3.90
2022-11-03T02:45:00.569Z,3.77
2022-11-03T02:47:31.157Z,3.77
2022-11-03T02:49:58.811Z,3.40
2022-11-03T02:52:43.857Z,3.93
2022-11-03T02:55:50.032Z,4.07
2022-11-03T02:58:46.493Z,4.30
2022-11-03T03:01:48.397Z,3.70
2022-11-03T03:04:27.494Z,4.40
2022-11-03T03:07:29.717Z,4.27
2022-11-03T03:10:06.124Z,5.13
2022-11-03T03:12:37.489Z,4.90
2022-11-03T03:15:08.861Z,4.50
2022-11-03T03:17:54.424Z,4.43
2022-11-03T03:20:34.636Z,4.23
2022-11-03T03:23:17.264Z,4.40
2022-11-03T03:26:26.256Z,4.37
2022-11-03T03:29:18.560Z,4.30
2022-11-03T03:31:56.879Z,4.40
2022-11-03T03:34:36.129Z,4.80
2022-11-03T03:37:06.469Z,4.87
2022-11-03T03:39:37.911Z,4.10
2022-11-03T03:42:09.075Z,3.97
2022-11-03T03:44:39.486Z,5.23
2022-11-03T03:47:19.350Z,5.37
2022-11-03T03:49:46.947Z,6.13
2022-11-03T03:52:15.732Z,5.87
2022-11-03T03:54:43.231Z,4.90
2022-11-03T03:57:20.879Z,4.70
2022-11-03T03:59:51.498Z,4.53
2022-11-03T04:02:19.057Z,4.80
2022-11-03T04:04:46.566Z,5.03
2022-11-03T04:07:32.833Z,4.40
2022-11-03T04:10:00.256Z,5.40
2022-11-03T04:12:46.695Z,5.03
2022-11-03T04:15:33.417Z,5.40
2022-11-03T04:18:19.469Z,5.50
2022-11-03T04:21:05.263Z,5.23
2022-11-03T04:23:32.688Z,4.33
2022-11-03T04:26:00.319Z,4.60
2022-11-03T04:28:27.933Z,4.90
2022-11-03T04:30:59.500Z,4.70
2022-11-03T04:33:27.723Z,5.17
2022-11-03T04:35:58.999Z,4.87
2022-11-03T04:38:28.425Z,5.30
2022-11-03T04:41:00.024Z,5.87
2022-11-03T04:43:38.696Z,5.20
2022-11-03T04:46:08.432Z,7.77
2022-11-03T04:48:35.955Z,8.00
2022-11-03T04:51:20.333Z,7.13
2022-11-03T04:53:54.951Z,5.90
2022-11-03T04:56:25.715Z,6.97
2022-11-03T04:58:54.349Z,6.97
2022-11-03T05:01:25.834Z,6.30
2022-11-03T05:03:55.359Z,6.07
2022-11-03T05:06:27.811Z,5.80
2022-11-03T05:09:16.992Z,8.57
2022-11-03T05:11:48.221Z,7.37
2022-11-03T05:14:27.220Z,6.77
2022-11-03T05:16:56.358Z,9.13
2022-11-03T05:19:43.636Z,8.37
2022-11-03T05:22:18.719Z,8.27
2022-11-03T05:24:46.255Z,9.67
2022-11-03T05:27:19.957Z,10.30
2022-11-03T05:29:48.847Z,10.00
2022-11-03T05:32:23.364Z,7.17
2022-11-03T05:34:53.600Z,8.23
2022-11-03T05:37:28.561Z,7.50
2022-11-03T05:39:59.903Z,7.17
2022-11-03T05:42:38.130Z,7.20
2022-11-03T05:45:22.963Z,6.37
2022-11-03T05:47:54.808Z,6.70
2022-11-03T05:50:25.919Z,6.30
2022-11-03T05:53:27.794Z,6.63
2022-11-03T05:55:57.411Z,7.20
2022-11-03T05:58:47.991Z,7.43
2022-11-03T06:01:35.986Z,6.70
2022-11-03T06:04:33.800Z,6.87
2022-11-03T06:07:27.727Z,7.43
2022-11-03T06:09:55.224Z,7.80
2022-11-03T06:12:23.773Z,6.70
2022-11-03T06:14:52.933Z,6.47
2022-11-03T06:17:29.600Z,5.93
2022-11-03T06:19:59.526Z,6.67
2022-11-03T06:22:34.658Z,5.37
2022-11-03T06:25:27.091Z,6.80
2022-11-03T06:28:01.007Z,6.57
2022-11-03T06:33:27.926Z,5.83
2022-11-03T06:36:04.125Z,6.10
2022-11-03T06:38:35.284Z,6.20
2022-11-03T06:41:02.856Z,5.27
2022-11-03T06:43:44.045Z,6.70
2022-11-03T06:46:31.569Z,6.40
2022-11-03T06:49:01.641Z,6.30
2022-11-03T06:51:30.800Z,5.53
2022-11-03T06:54:03.132Z,6.10
2022-11-03T06:56:35.817Z,4.60
2022-11-03T06:59:03.609Z,4.03
2022-11-03T07:01:34.456Z,4.70
2022-11-03T07:04:15.111Z,4.43
2022-11-03T07:06:47.791Z,4.73
2022-11-03T07:09:25.985Z,6.83
2022-11-03T07:12:00.545Z,7.07
2022-11-03T07:14:31.736Z,5.57
2022-11-03T07:17:03.997Z,6.87
2022-11-03T07:19:40.481Z,6.87
2022-11-03T07:22:27.702Z,6.23
2022-11-03T07:25:00.633Z,5.37
2022-11-03T07:27:36.749Z,4.40
2022-11-03T07:30:24.573Z,4.80
2022-11-03T07:33:00.928Z,8.57
2022-11-03T07:36:00.219Z,8.13
2022-11-03T07:38:24.454Z,4.20
2022-11-03T07:40:53.782Z,5.40
2022-11-03T07:43:32.305Z,5.73
2022-11-03T07:46:05.221Z,4.60
2022-11-03T07:48:51.770Z,3.87
2022-11-03T07:51:37.783Z,4.50
2022-11-03T07:54:28.360Z,5.83
2022-11-03T07:57:06.155Z,5.00
2022-11-03T07:59:41.465Z,6.10
2022-11-03T08:02:35.246Z,10.07
2022-11-03T08:05:03.641Z,6.30
2022-11-03T08:07:31.751Z,16.03
2022-11-03T08:09:59.491Z,16.57
2022-11-03T08:12:27.041Z,6.67
2022-11-03T08:14:54.476Z,6.30
2022-11-03T08:17:21.954Z,7.20
2022-11-03T08:19:49.442Z,6.53
2022-11-03T08:22:16.912Z,6.40
2022-11-03T08:24:44.397Z,6.80
2022-11-03T08:27:11.872Z,6.17
2022-11-03T08:29:39.384Z,5.93
2022-11-03T08:32:06.884Z,6.93
2022-11-03T08:34:34.299Z,5.83
2022-11-03T08:37:01.786Z,6.20
2022-11-03T08:39:31.372Z,5.83
2022-11-03T08:41:58.845Z,6.40
2022-11-03T08:44:26.257Z,7.43
2022-11-03T08:46:53.744Z,5.90
2022-11-03T08:49:21.391Z,5.67
2022-11-03T08:51:48.844Z,6.15
2022-11-03T08:54:16.267Z,5.40
2022-11-03T08:56:47.145Z,5.90
2022-11-03T08:59:14.671Z,6.10
2022-11-03T09:01:42.215Z,6.43
2022-11-03T09:04:09.780Z,5.83
2022-11-03T09:06:37.184Z,5.67
2022-11-03T09:11:52.156Z,5.97
2022-11-03T09:14:19.606Z,7.00
2022-11-03T09:16:47.140Z,5.90
2022-11-03T09:19:14.574Z,5.82
2022-11-03T09:21:43.416Z,6.27
2022-11-03T09:24:10.897Z,5.27
2022-11-03T09:26:38.487Z,5.70
2022-11-03T09:29:07.406Z,6.60
2022-11-03T09:31:34.832Z,5.50
2022-11-03T09:34:02.348Z,5.90
2022-11-03T09:36:31.200Z,6.43
2022-11-03T09:38:58.647Z,5.30
2022-11-03T09:41:44.225Z,5.38
2022-11-03T09:44:14.001Z,5.95
2022-11-03T09:46:41.685Z,6.07
2022-11-03T09:49:15.597Z,5.87
2022-11-03T09:51:44.089Z,5.50
2022-11-03T09:54:15.785Z,6.35
2022-11-03T09:56:47.140Z,5.82
2022-11-03T09:59:18.933Z,5.57
2022-11-03T10:01:53.505Z,6.85
2022-11-03T10:04:28.071Z,6.30
2022-11-03T10:06:59.590Z,6.20
2022-11-03T10:09:29.805Z,6.25
2022-11-03T10:11:57.348Z,6.22
2022-11-03T10:14:24.890Z,5.95
2022-11-03T10:17:00.531Z,5.40
2022-11-03T10:19:28.900Z,5.70
2022-11-03T10:21:56.395Z,6.03
2022-11-03T10:24:25.065Z,5.70
2022-11-03T10:26:55.137Z,6.13
2022-11-03T10:29:27.433Z,5.63
2022-11-03T10:31:59.758Z,5.75
2022-11-03T10:34:39.232Z,5.55
2022-11-03T10:37:27.022Z,5.95
2022-11-03T10:39:57.890Z,5.20
2022-11-03T10:42:35.006Z,4.93
2022-11-03T10:45:19.397Z,5.00
2022-11-03T10:48:01.867Z,5.20
2022-11-03T10:50:29.764Z,5.78
2022-11-03T10:52:58.219Z,5.72
2022-11-03T10:55:27.203Z,5.82
2022-11-03T10:57:58.614Z,5.25
2022-11-03T11:00:26.562Z,6.05
2022-11-03T11:03:00.472Z,5.43
2022-11-03T11:05:28.321Z,5.10
2022-11-03T11:07:57.327Z,5.60
2022-11-03T11:10:28.349Z,5.93
2022-11-03T11:13:19.042Z,5.05
2022-11-03T11:15:58.917Z,4.78
2022-11-03T11:18:32.166Z,5.10
2022-11-03T11:21:21.125Z,5.43
2022-11-03T11:23:52.590Z,5.90
2022-11-03T11:26:26.217Z,5.47
2022-11-03T11:29:08.854Z,6.55
2022-11-03T11:31:42.588Z,5.93
2022-11-03T11:34:10.079Z,5.93
2022-11-03T11:36:42.570Z,5.85
2022-11-03T11:39:31.268Z,6.03
2022-11-03T11:42:20.254Z,5.43
2022-11-03T11:44:59.948Z,6.13
2022-11-03T11:47:51.997Z,6.13
2022-11-03T11:50:29.282Z,5.03
2022-11-03T11:53:11.883Z,5.40
2022-11-03T11:55:52.037Z,5.60
2022-11-03T11:58:33.014Z,5.85
2022-11-03T12:01:06.557Z,4.80
2022-11-03T12:03:39.329Z,5.13
2022-11-03T12:06:08.225Z,5.40
2022-11-03T12:08:35.778Z,5.53
2022-11-03T12:11:06.312Z,5.60
2022-11-03T12:13:51.240Z,4.97
2022-11-03T12:16:36.331Z,4.60
2022-11-03T12:19:41.108Z,5.60
2022-11-03T12:22:11.718Z,4.72
2022-11-03T12:25:08.542Z,5.47
2022-11-03T12:27:35.934Z,4.75
2022-11-03T12:30:14.449Z,5.07
2022-11-03T12:32:41.978Z,5.47
2022-11-03T12:35:11.050Z,5.70
2022-11-03T12:37:38.645Z,5.50
2022-11-03T12:40:07.365Z,4.90
2022-11-03T12:42:35.222Z,5.60
2022-11-03T12:45:02.899Z,4.68
2022-11-03T12:47:30.334Z,5.60
2022-11-03T12:49:58.402Z,4.88
2022-11-03T12:52:25.874Z,5.70
2022-11-03T12:54:53.568Z,5.45
2022-11-03T12:57:21.451Z,6.00
2022-11-03T12:59:51.422Z,4.80
2022-11-03T13:02:19.004Z,5.20
2022-11-03T13:04:46.676Z,4.85
2022-11-03T13:07:14.069Z,5.95
2022-11-03T13:09:41.510Z,5.53
2022-11-03T13:12:31.468Z,5.22
2022-11-03T13:15:00.893Z,5.95
2022-11-03T13:17:32.278Z,5.05
2022-11-03T13:20:14.650Z,4.82
2022-11-03T13:22:42.409Z,5.78
2022-11-03T13:25:10.339Z,7.13
2022-11-03T13:27:37.903Z,6.20
2022-11-03T13:30:07.423Z,4.93
2022-11-03T13:32:34.898Z,5.90
2022-11-03T13:35:02.433Z,4.65
2022-11-03T13:37:30.047Z,5.32
2022-11-03T13:39:57.765Z,5.20
2022-11-03T13:42:25.338Z,5.18
2022-11-03T13:44:53.036Z,4.65
2022-11-03T13:47:29.873Z,4.97
2022-11-03T13:50:14.009Z,4.70
2022-11-03T13:52:42.001Z,5.05
2022-11-03T14:00:47.296Z,5.13
2022-11-03T14:06:03.054Z,4.90
2022-11-03T14:08:30.503Z,5.00
2022-11-03T14:10:57.968Z,5.07
2022-11-03T14:13:25.467Z,5.30
2022-11-03T14:15:53.420Z,4.55
2022-11-03T14:18:20.841Z,5.05
2022-11-03T14:20:48.329Z,4.88
2022-11-03T14:23:15.765Z,5.22
2022-11-03T14:25:43.297Z,5.03
2022-11-03T14:28:10.858Z,5.35
2022-11-03T14:30:38.392Z,4.70
2022-11-03T14:33:05.795Z,4.72
2022-11-03T14:35:33.263Z,4.85
2022-11-03T14:38:00.777Z,4.95
2022-11-03T14:40:46.594Z,4.68
2022-11-03T14:43:14.558Z,5.00
2022-11-03T14:45:42.794Z,4.78
2022-11-03T14:48:10.612Z,4.82
2022-11-03T14:50:38.269Z,4.65
2022-11-03T14:53:05.862Z,4.55
2022-11-03T14:55:33.288Z,5.20
2022-11-03T14:58:00.749Z,4.40
2022-11-03T15:00:28.433Z,4.90
2022-11-03T15:02:56.075Z,4.60
2022-11-03T15:05:42.186Z,4.80
2022-11-03T15:08:10.286Z,4.75
2022-11-03T15:10:37.787Z,5.20
2022-11-03T15:13:05.630Z,5.15
2022-11-03T15:15:35.499Z,4.80
2022-11-03T15:18:05.236Z,5.10
2022-11-03T15:20:35.504Z,5.28
2022-11-03T15:25:53.811Z,5.05
2022-11-03T15:28:21.463Z,4.65
2022-11-03T15:30:49.081Z,5.22
2022-11-03T15:33:16.808Z,5.45
2022-11-03T15:35:47.174Z,5.25
2022-11-03T15:38:16.134Z,4.75
2022-11-03T15:40:45.451Z,4.95
2022-11-03T15:43:17.279Z,5.57
2022-11-03T15:45:47.290Z,5.35
2022-11-03T15:48:14.920Z,5.43
2022-11-03T15:50:43.138Z,6.95
2022-11-03T15:53:10.578Z,7.20
2022-11-03T15:55:38.140Z,7.60
2022-11-03T15:58:06.370Z,7.40
2022-11-03T16:00:36.431Z,7.05
2022-11-03T16:03:04.686Z,6.00
2022-11-03T16:05:32.407Z,6.10
2022-11-03T16:08:00.506Z,6.20
2022-11-03T16:10:27.963Z,6.53
2022-11-03T16:12:58.039Z,6.37
2022-11-03T16:15:25.582Z,8.03
2022-11-03T16:17:53.281Z,7.33
2022-11-03T16:20:21.186Z,8.97
2022-11-03T16:22:48.672Z,9.90
2022-11-03T16:25:19.161Z,11.87
2022-11-03T16:27:48.621Z,10.17
2022-11-03T16:30:16.193Z,9.17
2022-11-03T16:32:43.965Z,9.17
2022-11-03T16:35:11.677Z,11.03
2022-11-03T16:37:42.599Z,10.03
2022-11-03T16:40:14.889Z,10.03
2022-11-03T16:42:47.120Z,9.67
2022-11-03T16:45:30.378Z,8.63
2022-11-03T16:48:00.560Z,8.00
2022-11-03T16:50:28.082Z,7.70
2022-11-03T16:52:56.046Z,8.40
2022-11-03T16:55:23.553Z,8.20
2022-11-03T16:57:50.998Z,9.07
2022-11-03T17:00:20.418Z,10.67
2022-11-03T17:02:48.739Z,11.97
2022-11-03T17:05:18.861Z,12.13
2022-11-03T17:07:52.026Z,13.20
2022-11-03T17:10:21.919Z,14.37
2022-11-03T17:12:50.332Z,13.67
2022-11-03T17:15:18.086Z,12.70
2022-11-03T17:17:45.849Z,13.23
2022-11-03T17:20:14.802Z,12.10
2022-11-03T17:22:44.105Z,11.67
2022-11-03T17:25:13.045Z,12.40
2022-11-03T17:28:00.900Z,11.90
2022-11-03T17:30:32.471Z,11.10
2022-11-03T17:33:05.566Z,10.07
2022-11-03T17:35:39.514Z,10.37
2022-11-03T17:38:15.471Z,11.00
2022-11-03T17:40:46.158Z,11.90
2022-11-03T17:43:27.257Z,13.33
2022-11-03T17:45:55.563Z,13.03
2022-11-03T17:48:24.150Z,15.20
2022-11-03T17:50:54.595Z,14.83
2022-11-03T17:53:27.640Z,15.90
2022-11-03T17:56:27.965Z,17.60
2022-11-03T17:58:47.208Z,20.13
2022-11-03T18:01:25.250Z,24.50
2022-11-03T18:03:53.286Z,28.90
2022-11-03T18:06:22.063Z,25.67
2022-11-03T18:08:50.437Z,12.67
2022-11-03T18:11:47.756Z,6.60
2022-11-03T18:14:16.638Z,7.37
2022-11-03T18:16:50.406Z,6.10
2022-11-03T18:19:19.751Z,5.33
2022-11-03T18:21:49.340Z,5.13
2022-11-03T18:24:23.930Z,5.50
2022-11-03T18:26:56.281Z,5.10
2022-11-03T18:29:26.686Z,5.60
2022-11-03T18:31:58.321Z,5.47
2022-11-03T18:34:28.192Z,5.50
2022-11-03T18:36:57.665Z,5.13
2022-11-03T18:39:29.441Z,5.47
2022-11-03T18:41:59.467Z,5.23
2022-11-03T18:44:31.183Z,5.40
2022-11-03T18:46:59.604Z,6.00
2022-11-03T18:49:30.590Z,6.20
2022-11-03T18:52:10.371Z,6.03
2022-11-03T18:54:47.121Z,6.33
2022-11-03T18:57:29.369Z,5.60
2022-11-03T18:59:57.851Z,5.80
2022-11-03T19:02:28.533Z,5.70
2022-11-03T19:05:00.705Z,6.07
2022-11-03T19:07:51.018Z,6.30
2022-11-03T19:10:24.241Z,8.23
2022-11-03T19:12:54.693Z,12.13
2022-11-03T19:15:26.891Z,18.03
2022-11-03T19:17:59.554Z,23.83
2022-11-03T19:20:29.013Z,25.87
2022-11-03T19:22:57.804Z,25.37
2022-11-03T19:25:25.371Z,19.87
2022-11-03T19:27:54.974Z,11.67
2022-11-03T19:30:25.814Z,8.23
2022-11-03T19:32:57.524Z,6.43
2022-11-03T19:35:32.921Z,7.30
2022-11-03T19:38:05.834Z,6.17
2022-11-03T19:40:34.332Z,6.10
2022-11-03T19:43:02.019Z,5.73
2022-11-03T19:45:29.572Z,5.77
2022-11-03T19:48:23.288Z,5.73
2022-11-03T19:50:50.503Z,5.40
2022-11-03T19:53:28.208Z,5.90
2022-11-03T19:56:00.128Z,6.17
2022-11-03T19:58:29.371Z,5.87
2022-11-03T20:01:01.749Z,5.33
2022-11-03T20:03:35.788Z,6.23
2022-11-03T20:06:04.130Z,5.47
2022-11-03T20:08:34.214Z,5.40
2022-11-03T20:11:02.005Z,5.50
2022-11-03T20:13:40.766Z,5.23
2022-11-03T20:16:16.913Z,6.27
2022-11-03T20:18:44.630Z,5.73
2022-11-03T20:21:20.214Z,5.37
2022-11-03T20:23:49.572Z,6.07
2022-11-03T20:26:21.879Z,5.20
2022-11-03T20:28:52.921Z,5.30
2022-11-03T20:31:20.462Z,5.47
2022-11-03T20:33:52.019Z,5.63
2022-11-03T20:36:21.542Z,6.00
2022-11-03T20:38:59.518Z,5.33
2022-11-03T20:41:30.482Z,5.97
2022-11-03T20:43:59.636Z,5.97
2022-11-03T20:46:31.958Z,5.60
2022-11-03T20:49:01.258Z,5.97
2022-11-03T20:51:37.900Z,6.13
2022-11-03T20:54:20.963Z,6.50
2022-11-03T20:56:49.290Z,6.53
2022-11-03T20:59:18.388Z,6.43
2022-11-03T21:01:46.684Z,6.53
2022-11-03T21:04:17.666Z,6.90
2022-11-03T21:06:45.945Z,6.83
2022-11-03T21:09:17.734Z,6.50
2022-11-03T21:11:47.496Z,6.97
2022-11-03T21:14:52.299Z,6.20
2022-11-03T21:17:41.807Z,7.13
2022-11-03T21:20:12.835Z,7.30
2022-11-03T21:22:52.394Z,6.63
2022-11-03T21:25:24.753Z,6.97
2022-11-03T21:27:58.032Z,7.20
2022-11-03T21:30:26.691Z,7.27
2022-11-03T21:32:54.793Z,7.07
2022-11-03T21:35:23.382Z,7.87
2022-11-03T21:37:52.257Z,7.57
2022-11-03T21:40:19.787Z,7.63
2022-11-03T21:43:06.018Z,8.23
2022-11-03T21:45:34.681Z,7.43
2022-11-03T21:48:21.293Z,7.87
2022-11-03T21:50:49.283Z,8.20
2022-11-03T21:53:16.969Z,7.53
2022-11-03T21:55:46.776Z,7.47
2022-11-03T21:58:14.694Z,7.43
2022-11-03T22:00:42.747Z,8.33
2022-11-03T22:03:11.463Z,7.17
2022-11-03T22:05:41.046Z,7.57
2022-11-03T22:08:10.758Z,8.40
2022-11-03T22:10:40.843Z,9.17
2022-11-03T22:13:09.437Z,7.97
2022-11-03T22:15:55.617Z,8.17
2022-11-03T22:18:23.497Z,8.67
2022-11-03T22:21:10.626Z,8.27
2022-11-03T22:23:56.516Z,9.37
2022-11-03T22:26:42.871Z,8.33
2022-11-03T22:29:28.677Z,8.63
2022-11-03T22:31:56.224Z,8.67
2022-11-03T22:34:43.807Z,9.07
2022-11-03T22:37:11.316Z,9.97
2022-11-03T22:40:04.854Z,9.57
2022-11-03T22:42:51.549Z,9.77
2022-11-03T22:45:40.678Z,9.03
2022-11-03T22:48:08.367Z,9.93
2022-11-03T22:50:35.928Z,9.73
2022-11-03T22:53:23.343Z,9.00
2022-11-03T22:55:51.167Z,8.73
2022-11-03T22:58:18.993Z,9.20
2022-11-03T23:00:47.611Z,9.30
2022-11-03T23:03:15.250Z,9.43
2022-11-03T23:05:42.983Z,10.43
2022-11-03T23:08:10.587Z,10.33
2022-11-03T23:10:38.020Z,9.60
2022-11-03T23:13:06.051Z,10.63
2022-11-03T23:15:33.870Z,9.80
2022-11-03T23:18:24.134Z,10.50
2022-11-03T23:21:06.675Z,10.20
2022-11-03T23:23:57.464Z,10.17
2022-11-03T23:26:27.595Z,9.10
2022-11-03T23:28:55.421Z,9.80
2022-11-03T23:31:23.194Z,8.87
2022-11-03T23:33:50.828Z,9.40
2022-11-03T23:36:19.034Z,9.43
2022-11-03T23:38:46.785Z,9.37
2022-11-03T23:41:17.652Z,10.33
2022-11-03T23:43:46.933Z,10.00
2022-11-03T23:46:36.553Z,10.77
2022-11-03T23:49:04.847Z,10.53
2022-11-03T23:51:34.436Z,10.10
2022-11-03T23:54:04.171Z,10.73
2022-11-03T23:56:55.198Z,10.37
2022-11-03T23:59:23.497Z,9.77
